Monday, February 19, 2018, 4:54 AM EST
Back to Local

KFZY, Fulton Oswego County Airport

Location: Fulton, NY, United States Lat: 43.35
Local Time: 4:54 AM EST ( 9:54 GMT) Lon: -76.383
Time Zone: US/Eastern Elev: 475 ft

Show me the last for .
Show Decoded

2018-02-19 03:54 METAR KFZY 190854Z AUTO 14008KT 10SM CLR 00/M06 A3025 RMK AO2 SLP250 T00001061
                 58018 =
2018-02-19 02:54 METAR KFZY 190754Z AUTO 13005KT 10SM CLR M01/M07 A3028 RMK AO2 SLP260 T10111067
                 =
2018-02-19 01:54 METAR KFZY 190654Z AUTO 13005KT 10SM CLR M01/M07 A3030 RMK AO2 SLP267 T10111067
                 =
2018-02-19 00:54 METAR KFZY 190554Z AUTO VRB04KT 10SM CLR M02/M07 A3031 RMK AO2 SLP269 T10171072
                 11006 21033 58023 =
2018-02-18 23:54 METAR KFZY 190454Z AUTO VRB05KT 10SM CLR M01/M07 A3033 RMK AO2 SLP277 T10061067
                 400331033 =
2018-02-18 22:54 METAR KFZY 190354Z AUTO 12006KT 10SM CLR M01/M07 A3036 RMK AO2 SLP286 T10111067
                 =
2018-02-18 21:54 METAR KFZY 190254Z AUTO 14004KT 10SM CLR M02/M06 A3038 RMK AO2 SLP292 T10171061
                 58019 =
2018-02-18 20:54 METAR KFZY 190154Z AUTO 13003KT 10SM CLR M03/M06 A3041 RMK AO2 SLP303 T10331061
                 =
2018-02-18 19:54 METAR KFZY 190054Z AUTO 00000KT 10SM CLR M02/M06 A3043 RMK AO2 SLP310 T10221061
                 =
2018-02-18 18:54 METAR KFZY 182354Z AUTO 00000KT 10SM FEW042 M01/M06 A3043 RMK AO2 SLP311
                 T10061056 10033 21006 51027 =
2018-02-18 17:54 METAR KFZY 182254Z AUTO 00000KT 10SM OVC041 01/M06 A3041 RMK AO2 SLP304
                 T00111056 =
2018-02-18 16:54 METAR KFZY 182154Z AUTO 27004KT 10SM OVC044 02/M07 A3037 RMK AO2 SLP291
                 T00171067 =
2018-02-18 15:54 METAR KFZY 182054Z AUTO 27007KT 10SM BKN045 02/M07 A3035 RMK AO2 SLP284
                 T00221067 53009 =
2018-02-18 14:54 METAR KFZY 181954Z AUTO 27008G18KT 10SM FEW050 03/M06 A3034 RMK AO2 SLP280
                 T00281061 =
2018-02-18 13:54 METAR KFZY 181854Z AUTO 27011KT 10SM BKN055 03/M04 A3033 RMK AO2 SLP278
                 T00281044 =
2018-02-18 12:54 METAR KFZY 181754Z AUTO 26011KT 10SM FEW025 OVC055 02/M04 A3033 RMK AO2 SLP274
                 60000 T00221039 10022 21011 53012 =
2018-02-18 11:54 METAR KFZY 181654Z AUTO 25008KT 10SM FEW017 SCT041 BKN050 01/M03 A3031 RMK AO2
                 SLP270 T00111028 =
2018-02-18 11:17 METAR KFZY 181617Z AUTO 27007KT 8SM SCT024 OVC033 01/M03 A3030 RMK AO2 T00061033
                 =
2018-02-18 10:54 METAR KFZY 181554Z AUTO 29005KT 7SM FEW021 BKN026 OVC034 00/M03 A3029 RMK AO2
                 SNB27E49 SLP264 P0000 T00001033 =
2018-02-18 09:54 METAR KFZY 181454Z AUTO 25008KT 7SM FEW021 FEW031 OVC041 00/M03 A3029 RMK AO2
                 SNB09E21 SLP262 P0000 60000 T00001033 53019 =
2018-02-18 09:41 METAR KFZY 181441Z AUTO 25007KT 6SM HZ FEW017 FEW025 OVC042 00/M03 A3028 RMK AO2
                 SNB09E21 P0000 T00001033 =
2018-02-18 08:54 METAR KFZY 181354Z AUTO 24006KT 8SM BKN017 BKN025 OVC045 00/M03 A3028 RMK AO2
                 SNE00B30E42 SLP258 P0000 T00001033 =
2018-02-18 07:54 METAR KFZY 181254Z AUTO 25009KT 5SM -SN BR BKN016 BKN022 OVC027 M01/M03 A3023
                 RMK AO2 UPB35E37SNB37 SLP243 P0000 T10111033 =
2018-02-18 06:54 METAR KFZY 181154Z AUTO 25006KT 9SM BKN013 OVC021 M01/M03 A3016 RMK AO2 SLP219
                 60003 70006 T10111033 11011 21017 51039 =
2018-02-18 06:13 METAR KFZY 181113Z AUTO 25009KT 9SM BKN014 BKN021 OVC045 M01/M03 A3014 RMK AO2
                 T10111033 =
2018-02-18 06:03 METAR KFZY 181103Z AUTO 25007KT 9SM FEW014 SCT021 OVC044 M02/M03 A3014 RMK AO2
                 T10171033 =
2018-02-18 05:54 METAR KFZY 181054Z AUTO 24007KT 9SM SCT016 BKN024 OVC042 M01/M03 A3013 RMK AO2
                 SLP207 T10111033 =

Support USWX by starting your Amazon purchase here.